Time;durP1;ratioP1;P1;durP2;ratioP2;P2;SDS_P1;SDS_P2;PMS_P1;PMS_P2;Temp;Humidity;BMP_temperature;BMP_pressure;BME280_temperature;BME280_humidity;BME280_pressure;Samples;Min_cycle;Max_cycle;Signal;HPM_P1;HPM_P2
2023/03/02 00:00:12;;;;;;;14.15;7.70;;;-0.50;99.90;;;;;;4920181;28;20406;-77
2023/03/02 00:02:39;;;;;;;12.10;6.78;;;-0.50;99.90;;;;;;4935185;28;20499;-77
2023/03/02 00:05:05;;;;;;;12.05;6.47;;;-0.50;99.90;;;;;;4912919;28;20046;-77
2023/03/02 00:07:31;;;;;;;10.90;6.50;;;-0.50;99.90;;;;;;4910722;28;20467;-78
2023/03/02 00:09:57;;;;;;;11.35;6.65;;;-0.50;99.90;;;;;;4922522;28;20399;-77
2023/03/02 00:12:23;;;;;;;10.07;6.35;;;-0.50;99.90;;;;;;4922279;28;20047;-78
2023/03/02 00:14:49;;;;;;;14.43;6.10;;;-0.50;99.90;;;;;;4924389;28;20540;-77
2023/03/02 00:17:14;;;;;;;12.23;6.55;;;-0.50;99.90;;;;;;4919265;28;20143;-78
2023/03/02 00:19:40;;;;;;;10.38;6.57;;;-0.30;99.90;;;;;;4930419;28;20110;-78
2023/03/02 00:22:06;;;;;;;11.23;5.95;;;-0.20;99.90;;;;;;4950524;28;20035;-78
2023/03/02 00:24:32;;;;;;;12.90;6.85;;;-0.20;99.90;;;;;;4915978;28;20175;-78
2023/03/02 00:26:57;;;;;;;11.95;6.55;;;-0.10;99.90;;;;;;4916732;28;20043;-78
2023/03/02 00:29:23;;;;;;;11.48;6.05;;;-0.10;99.90;;;;;;4891863;28;20051;-78
2023/03/02 00:31:48;;;;;;;12.40;6.18;;;-0.20;99.90;;;;;;4921983;28;20032;-78
2023/03/02 00:34:15;;;;;;;12.50;6.97;;;-0.30;99.90;;;;;;4909887;28;20043;-78
2023/03/02 00:36:41;;;;;;;10.43;6.43;;;-0.50;99.90;;;;;;4918767;29;20099;-77
2023/03/02 00:39:06;;;;;;;11.02;6.40;;;-0.60;99.90;;;;;;4911385;28;20653;-77
2023/03/02 00:41:32;;;;;;;11.48;6.90;;;-0.50;99.90;;;;;;4931590;28;20036;-78
2023/03/02 00:43:57;;;;;;;11.60;5.97;;;-0.60;99.90;;;;;;4939070;28;20066;-78
2023/03/02 00:46:23;;;;;;;11.93;7.10;;;-0.60;99.90;;;;;;4928978;29;20130;-78
2023/03/02 00:48:49;;;;;;;10.85;6.00;;;-0.60;99.90;;;;;;4920022;28;20032;-77
2023/03/02 00:51:15;;;;;;;15.27;6.82;;;-0.60;99.90;;;;;;4915180;28;20038;-78
2023/03/02 00:53:41;;;;;;;12.95;6.68;;;-0.70;99.90;;;;;;4916036;28;20051;-77
2023/03/02 00:56:07;;;;;;;12.48;6.55;;;-0.70;99.90;;;;;;4920601;28;20063;-77
2023/03/02 00:58:33;;;;;;;10.63;6.30;;;-0.60;99.90;;;;;;4897066;28;20051;-77
2023/03/02 01:00:58;;;;;;;16.52;7.32;;;-0.50;99.90;;;;;;4904456;28;20035;-77
2023/03/02 01:03:24;;;;;;;10.35;6.05;;;-0.60;99.90;;;;;;4894567;28;20057;-77
2023/03/02 01:05:55;;;;;;;15.73;7.15;;;-0.70;99.90;;;;;;4895237;28;20063;-77
2023/03/02 01:08:21;;;;;;;15.30;7.15;;;-0.80;99.90;;;;;;4908211;28;20739;-77
2023/03/02 01:10:47;;;;;;;12.70;6.88;;;-0.80;99.90;;;;;;4928512;28;20504;-77
2023/03/02 01:13:12;;;;;;;12.75;6.55;;;-0.90;99.90;;;;;;4904331;28;20031;-77
2023/03/02 01:15:38;;;;;;;11.90;7.40;;;-0.90;99.90;;;;;;4918193;28;20035;-77
2023/03/02 01:18:03;;;;;;;12.05;7.20;;;-1.00;99.90;;;;;;4899093;28;20122;-77
2023/03/02 01:20:29;;;;;;;12.32;6.88;;;-1.10;99.90;;;;;;4928791;28;20400;-77
2023/03/02 01:22:55;;;;;;;12.10;6.53;;;-1.00;99.90;;;;;;4912313;28;20446;-76
2023/03/02 01:25:20;;;;;;;12.38;6.75;;;-1.00;99.90;;;;;;4895606;28;20027;-77
2023/03/02 01:27:46;;;;;;;12.50;6.97;;;-0.80;99.90;;;;;;4895225;28;20067;-77
2023/03/02 01:30:12;;;;;;;12.63;7.03;;;-0.90;99.90;;;;;;4943245;28;20034;-77
2023/03/02 01:32:37;;;;;;;13.95;6.78;;;-1.00;99.90;;;;;;4908014;28;20544;-77
2023/03/02 01:35:04;;;;;;;12.23;6.82;;;-1.10;99.90;;;;;;4952578;28;20048;-75
2023/03/02 01:37:29;;;;;;;12.82;7.07;;;-1.10;99.90;;;;;;4917330;28;20047;-77
2023/03/02 01:39:55;;;;;;;12.73;7.47;;;-1.00;99.90;;;;;;4929422;28;20046;-77
2023/03/02 01:42:20;;;;;;;13.40;6.65;;;-1.00;99.90;;;;;;4899610;28;20475;-77
2023/03/02 01:44:50;;;;;;;11.38;6.65;;;-1.10;99.90;;;;;;4922296;28;20094;-76
2023/03/02 01:47:35;;;;;;;14.52;7.40;;;-1.20;99.90;;;;;;4901588;28;20461;-78
2023/03/02 01:50:21;;;;;;;13.88;7.50;;;-1.30;99.90;;;;;;4916515;28;20352;-77
2023/03/02 01:52:47;;;;;;;15.82;7.20;;;-1.40;99.90;;;;;;4910560;28;20123;-78
2023/03/02 01:55:15;;;;;;;16.67;7.70;;;-1.50;99.90;;;;;;4910616;28;20078;-77
2023/03/02 01:57:43;;;;;;;15.75;7.15;;;-1.40;99.90;;;;;;4910093;28;20035;-77
2023/03/02 02:00:15;;;;;;;13.82;7.60;;;-1.30;99.90;;;;;;4909505;28;20046;-77
2023/03/02 02:02:40;;;;;;;14.70;8.27;;;-1.40;99.90;;;;;;4907339;29;20403;-77
2023/03/02 02:05:08;;;;;;;13.05;7.43;;;-1.50;99.90;;;;;;4919291;28;20031;-77
2023/03/02 02:07:34;;;;;;;13.52;7.93;;;-1.60;99.90;;;;;;4932800;28;20039;-77
2023/03/02 02:09:59;;;;;;;13.02;7.78;;;-1.60;99.90;;;;;;4917422;28;20499;-76
2023/03/02 02:12:25;;;;;;;13.00;6.80;;;-1.60;99.90;;;;;;4904799;28;20600;-78
2023/03/02 02:14:52;;;;;;;14.93;7.72;;;-1.60;99.90;;;;;;4936981;28;20203;-78
2023/03/02 02:17:18;;;;;;;16.05;7.75;;;-1.60;99.90;;;;;;4900683;28;20043;-77
2023/03/02 02:19:59;;;;;;;13.95;7.63;;;-1.70;99.90;;;;;;4897801;29;20050;-77
2023/03/02 02:22:38;;;;;;;13.00;7.30;;;-1.70;99.90;;;;;;4932255;28;20554;-77
2023/03/02 02:25:08;;;;;;;12.48;6.90;;;-1.70;99.90;;;;;;4934703;28;20039;-76
2023/03/02 02:27:34;;;;;;;12.70;7.55;;;-1.70;99.90;;;;;;4907971;28;20048;-76
2023/03/02 02:30:01;;;;;;;17.63;8.73;;;-1.70;99.90;;;;;;4915299;28;20669;-76
2023/03/02 02:32:31;;;;;;;14.05;7.88;;;-1.50;99.90;;;;;;4908849;28;20526;-76
2023/03/02 02:35:11;;;;;;;10.90;6.90;;;-1.60;99.90;;;;;;4897198;28;20031;-76
2023/03/02 02:37:38;;;;;;;12.02;7.00;;;-1.60;99.90;;;;;;4907502;28;20669;-76
2023/03/02 02:40:07;;;;;;;12.68;7.47;;;-1.70;99.90;;;;;;4927999;28;20050;-76
2023/03/02 02:42:38;;;;;;;15.65;7.03;;;-1.70;99.90;;;;;;4909085;28;20047;-76
2023/03/02 02:45:06;;;;;;;17.38;7.00;;;-1.60;99.90;;;;;;4899506;28;20697;-76
2023/03/02 02:47:31;;;;;;;14.30;7.40;;;-1.60;99.90;;;;;;4909054;28;20036;-76
2023/03/02 02:49:57;;;;;;;14.10;7.30;;;-1.50;99.90;;;;;;4910256;28;20039;-76
2023/03/02 02:52:24;;;;;;;14.27;7.97;;;-1.60;99.90;;;;;;4921072;28;20047;-77
2023/03/02 02:54:51;;;;;;;16.67;7.78;;;-1.70;99.90;;;;;;4908825;28;20031;-75
2023/03/02 02:57:17;;;;;;;10.40;7.15;;;-1.60;99.90;;;;;;4915951;28;20027;-75
2023/03/02 02:59:47;;;;;;;12.82;7.43;;;-1.80;99.90;;;;;;4907183;28;20440;-75
2023/03/02 03:02:21;;;;;;;15.15;7.25;;;-1.70;99.90;;;;;;4895146;28;20035;-76
2023/03/02 03:04:47;;;;;;;12.50;6.75;;;-1.60;99.90;;;;;;4909607;28;20038;-75
2023/03/02 03:07:20;;;;;;;16.70;7.57;;;-1.60;99.90;;;;;;4929794;28;20089;-76
2023/03/02 03:09:50;;;;;;;13.20;6.95;;;-1.60;99.90;;;;;;4899157;28;20051;-76
2023/03/02 03:12:18;;;;;;;12.05;6.80;;;-1.60;99.90;;;;;;4927188;28;20110;-76
2023/03/02 03:14:44;;;;;;;12.73;6.85;;;-1.80;99.90;;;;;;4931952;28;20459;-76
2023/03/02 03:17:12;;;;;;;10.18;6.10;;;-1.60;99.90;;;;;;4918818;28;20031;-76
2023/03/02 03:19:43;;;;;;;12.25;6.72;;;-1.70;99.90;;;;;;4929763;28;20444;-76
2023/03/02 03:22:10;;;;;;;13.45;7.28;;;-1.60;99.90;;;;;;4895102;28;20478;-76
2023/03/02 03:24:36;;;;;;;14.38;7.18;;;-1.60;99.90;;;;;;4908149;28;20035;-75
2023/03/02 03:27:04;;;;;;;13.40;7.85;;;-1.70;99.90;;;;;;4893348;28;20031;-76
2023/03/02 03:29:30;;;;;;;12.93;6.57;;;-1.70;99.90;;;;;;4935549;28;20506;-76
2023/03/02 03:31:55;;;;;;;19.40;8.45;;;-1.70;99.90;;;;;;4905040;28;20040;-77
2023/03/02 03:34:21;;;;;;;14.55;6.85;;;-1.80;99.90;;;;;;4915054;28;20505;-77
2023/03/02 03:36:47;;;;;;;13.02;7.88;;;-1.90;99.90;;;;;;4896047;28;20082;-77
2023/03/02 03:39:13;;;;;;;12.68;7.38;;;-1.80;99.90;;;;;;4934491;28;20034;-77
2023/03/02 03:41:39;;;;;;;16.75;7.57;;;-1.80;99.90;;;;;;4899262;28;20035;-76
2023/03/02 03:44:04;;;;;;;14.15;7.20;;;-1.90;99.90;;;;;;4916407;28;20039;-76
2023/03/02 03:46:30;;;;;;;12.10;7.32;;;-2.00;99.90;;;;;;4931628;28;20060;-76
2023/03/02 03:48:56;;;;;;;15.20;7.47;;;-2.00;99.90;;;;;;4909622;28;20051;-77
2023/03/02 03:51:22;;;;;;;13.55;7.95;;;-2.00;99.90;;;;;;4893925;28;20043;-77
2023/03/02 03:53:58;;;;;;;14.82;7.70;;;-2.00;99.90;;;;;;4896529;28;20039;-77
2023/03/02 03:56:28;;;;;;;16.67;6.95;;;-2.00;99.90;;;;;;4909373;28;20066;-77
2023/03/02 03:59:05;;;;;;;11.40;7.00;;;-2.10;99.90;;;;;;4915678;28;20034;-76
2023/03/02 04:01:51;;;;;;;14.35;7.30;;;-2.10;99.90;;;;;;4905216;28;20035;-76
2023/03/02 04:04:25;;;;;;;12.60;7.60;;;-2.20;99.90;;;;;;4929493;28;20043;-76
2023/03/02 04:06:51;;;;;;;12.65;6.30;;;-2.20;99.90;;;;;;4923698;28;20086;-77
2023/03/02 04:09:19;;;;;;;18.27;7.82;;;-2.20;99.90;;;;;;4929530;28;20034;-77
2023/03/02 04:11:45;;;;;;;14.27;7.38;;;-2.20;99.90;;;;;;4942492;28;20373;-76
2023/03/02 04:14:11;;;;;;;13.40;6.22;;;-2.30;99.90;;;;;;4923421;28;20027;-76
2023/03/02 04:16:37;;;;;;;12.63;6.95;;;-2.20;99.90;;;;;;4928825;28;20039;-76
2023/03/02 04:19:08;;;;;;;13.07;8.57;;;-2.20;99.90;;;;;;4908903;28;20039;-76
2023/03/02 04:21:41;;;;;;;12.55;7.15;;;-2.40;99.90;;;;;;4898719;28;20046;-76
2023/03/02 04:24:07;;;;;;;11.25;6.35;;;-2.40;99.90;;;;;;4914865;28;20356;-77
2023/03/02 04:26:33;;;;;;;18.95;8.70;;;-2.50;99.90;;;;;;4915287;28;20068;-76
2023/03/02 04:28:58;;;;;;;15.73;8.05;;;-2.50;99.90;;;;;;4915001;28;20384;-77
2023/03/02 04:31:24;;;;;;;15.18;7.18;;;-2.50;99.90;;;;;;4895316;28;20079;-77
2023/03/02 04:33:50;;;;;;;16.25;6.72;;;-2.50;99.90;;;;;;4931556;28;20086;-77
2023/03/02 04:36:15;;;;;;;13.82;6.45;;;-2.40;99.90;;;;;;4926392;28;20035;-77
2023/03/02 04:38:41;;;;;;;11.10;6.20;;;-2.30;99.90;;;;;;4933817;29;20332;-77
2023/03/02 04:41:06;;;;;;;12.50;7.55;;;-2.10;99.90;;;;;;4918595;28;20446;-77
2023/03/02 04:43:32;;;;;;;13.15;7.05;;;-2.00;99.90;;;;;;4897843;29;20534;-77
2023/03/02 04:45:57;;;;;;;11.75;6.38;;;-2.10;99.90;;;;;;4910041;28;20031;-77
2023/03/02 04:48:23;;;;;;;16.35;7.45;;;-2.10;99.90;;;;;;4911133;29;20038;-77
2023/03/02 04:50:48;;;;;;;18.88;7.18;;;-2.10;99.90;;;;;;4900166;28;20047;-77
2023/03/02 04:53:14;;;;;;;14.27;6.78;;;-2.10;99.90;;;;;;4948564;28;20034;-77
2023/03/02 04:55:40;;;;;;;13.95;6.75;;;-2.20;99.90;;;;;;4951168;28;20047;-77
2023/03/02 04:58:06;;;;;;;12.63;6.40;;;-2.20;99.90;;;;;;4915612;28;20431;-77
2023/03/02 05:00:34;;;;;;;11.27;7.00;;;-2.20;99.90;;;;;;4917101;29;20451;-77
2023/03/02 05:03:01;;;;;;;13.90;6.82;;;-2.20;99.90;;;;;;4914117;28;20032;-77
2023/03/02 05:05:27;;;;;;;12.07;6.75;;;-2.40;99.90;;;;;;4905320;29;20531;-77
2023/03/02 05:07:52;;;;;;;15.68;7.32;;;-2.40;99.90;;;;;;4909642;28;20049;-77
2023/03/02 05:10:18;;;;;;;14.43;7.13;;;-2.40;99.90;;;;;;4899862;28;20054;-77
2023/03/02 05:12:53;;;;;;;17.38;7.55;;;-2.50;99.90;;;;;;4904391;28;20406;-77
2023/03/02 05:15:30;;;;;;;12.45;7.70;;;-2.60;99.90;;;;;;4928184;28;20028;-76
2023/03/02 05:17:56;;;;;;;15.77;6.75;;;-2.60;99.90;;;;;;4910669;28;20079;-77
2023/03/02 05:20:26;;;;;;;11.77;7.30;;;-2.60;99.90;;;;;;4917801;28;20035;-77
2023/03/02 05:22:53;;;;;;;10.82;6.40;;;-2.70;99.90;;;;;;4910514;28;20027;-77
2023/03/02 05:25:18;;;;;;;13.38;6.63;;;-2.70;99.90;;;;;;4916085;28;20030;-76
2023/03/02 05:27:44;;;;;;;13.98;7.15;;;-2.60;99.90;;;;;;4906745;29;20082;-77
2023/03/02 05:30:10;;;;;;;13.73;7.65;;;-2.60;99.90;;;;;;4950632;28;20122;-76
2023/03/02 05:32:36;;;;;;;9.85;6.68;;;-2.50;99.90;;;;;;4915004;29;20412;-76
2023/03/02 05:35:01;;;;;;;15.93;7.60;;;-2.50;99.90;;;;;;4922569;28;20046;-76
2023/03/02 05:37:27;;;;;;;12.27;7.65;;;-2.40;99.90;;;;;;4897920;29;20082;-77
2023/03/02 05:39:52;;;;;;;13.02;7.25;;;-2.50;99.90;;;;;;4898271;28;20050;-77
2023/03/02 05:42:18;;;;;;;12.98;7.53;;;-2.50;99.90;;;;;;4915831;28;20035;-76
2023/03/02 05:44:43;;;;;;;16.45;8.75;;;-2.70;99.90;;;;;;4917882;28;20074;-77
2023/03/02 05:47:09;;;;;;;15.23;9.02;;;-2.70;99.90;;;;;;4940180;28;20042;-77
2023/03/02 05:49:34;;;;;;;14.70;8.52;;;-2.80;99.90;;;;;;4896766;29;20039;-77
2023/03/02 05:52:00;;;;;;;13.93;7.78;;;-2.70;99.90;;;;;;4914141;28;20036;-76
2023/03/02 05:54:26;;;;;;;16.48;8.68;;;-2.60;99.90;;;;;;4908821;29;20297;-76
2023/03/02 05:56:51;;;;;;;16.15;8.75;;;-2.60;99.90;;;;;;4935084;28;20501;-77
2023/03/02 05:59:17;;;;;;;15.43;8.02;;;-2.60;99.90;;;;;;4934466;28;20067;-77
2023/03/02 06:01:42;;;;;;;12.70;7.82;;;-2.50;99.90;;;;;;4899041;28;20247;-77
2023/03/02 06:04:08;;;;;;;15.18;7.78;;;-2.60;99.90;;;;;;4929343;28;20684;-76
2023/03/02 06:06:33;;;;;;;15.48;7.97;;;-2.50;99.90;;;;;;4929780;28;20043;-76
2023/03/02 06:08:59;;;;;;;14.75;7.10;;;-2.50;99.90;;;;;;4928329;28;20035;-76
2023/03/02 06:11:24;;;;;;;18.63;7.50;;;-2.50;99.90;;;;;;4898801;28;20418;-77
2023/03/02 06:13:50;;;;;;;14.95;6.97;;;-2.40;99.90;;;;;;4902295;28;20038;-77
2023/03/02 06:16:15;;;;;;;13.88;7.03;;;-2.40;99.90;;;;;;4913119;28;20118;-77
2023/03/02 06:18:41;;;;;;;14.13;8.25;;;-2.40;99.90;;;;;;4897354;28;20038;-77
2023/03/02 06:21:07;;;;;;;13.73;7.85;;;-2.50;99.90;;;;;;4926356;28;20027;-76
2023/03/02 06:23:32;;;;;;;15.75;9.23;;;-2.60;99.90;;;;;;4910122;28;20038;-76
2023/03/02 06:25:58;;;;;;;19.63;11.25;;;-2.60;99.90;;;;;;4896902;28;20095;-77
2023/03/02 06:28:24;;;;;;;15.30;9.77;;;-2.60;99.90;;;;;;4896398;28;20042;-77
2023/03/02 06:30:51;;;;;;;13.35;7.90;;;-2.60;99.90;;;;;;4929965;28;20121;-78
2023/03/02 06:33:17;;;;;;;16.55;7.82;;;-2.60;99.90;;;;;;4897617;28;20043;-77
2023/03/02 06:35:43;;;;;;;14.70;8.07;;;-2.60;99.90;;;;;;4905944;28;20055;-76
2023/03/02 06:38:08;;;;;;;13.50;6.97;;;-2.60;99.90;;;;;;4932281;28;20054;-76
2023/03/02 06:40:34;;;;;;;13.55;8.23;;;-2.60;99.90;;;;;;4904118;28;20047;-76
2023/03/02 06:43:00;;;;;;;17.90;9.60;;;-2.60;99.90;;;;;;4897551;28;20059;-76
2023/03/02 06:45:26;;;;;;;16.90;7.65;;;-2.70;99.90;;;;;;4896417;28;20038;-76
2023/03/02 06:47:52;;;;;;;15.93;8.63;;;-2.80;99.90;;;;;;4908971;28;20510;-76
2023/03/02 06:50:18;;;;;;;15.43;8.02;;;-2.90;99.90;;;;;;4939056;28;20105;-77
2023/03/02 06:52:44;;;;;;;13.95;7.88;;;-2.80;99.90;;;;;;4918655;28;20031;-77
2023/03/02 06:55:09;;;;;;;9.82;6.75;;;-2.70;99.90;;;;;;4922910;28;20069;-76
2023/03/02 06:57:35;;;;;;;14.23;7.93;;;-2.60;99.90;;;;;;4904497;29;20050;-76
2023/03/02 07:00:26;;;;;;;10.88;6.22;;;-2.50;99.90;;;;;;4919425;28;20127;-76
2023/03/02 07:02:53;;;;;;;13.60;6.85;;;-2.30;99.90;;;;;;4911718;28;20036;-77
2023/03/02 07:05:18;;;;;;;11.15;6.32;;;-2.40;99.90;;;;;;4913659;28;20035;-76
2023/03/02 07:07:44;;;;;;;14.77;7.03;;;-2.20;99.90;;;;;;4915798;29;20404;-77
2023/03/02 07:10:12;;;;;;;11.75;6.78;;;-2.00;99.90;;;;;;4961104;28;20048;-77
2023/03/02 07:12:38;;;;;;;11.77;7.03;;;-1.90;99.90;;;;;;4944419;28;20050;-75
2023/03/02 07:15:07;;;;;;;13.65;7.45;;;-1.90;99.90;;;;;;4922878;29;20035;-76
2023/03/02 07:17:33;;;;;;;12.30;7.03;;;-1.80;99.90;;;;;;4911110;28;20043;-76
2023/03/02 07:19:58;;;;;;;14.73;8.10;;;-1.90;99.90;;;;;;4920915;29;20510;-77
2023/03/02 07:22:24;;;;;;;11.32;6.78;;;-1.60;99.90;;;;;;4933993;29;20035;-77
2023/03/02 07:24:51;;;;;;;17.63;7.20;;;-1.50;99.90;;;;;;4920551;28;20062;-76
2023/03/02 07:27:16;;;;;;;12.57;7.47;;;-1.40;99.90;;;;;;4910913;29;20172;-76
2023/03/02 07:29:42;;;;;;;11.88;6.25;;;-1.60;99.90;;;;;;4924608;29;20082;-76
2023/03/02 07:32:08;;;;;;;11.15;6.10;;;-1.50;99.90;;;;;;4918422;28;20039;-77
2023/03/02 07:34:33;;;;;;;15.40;7.18;;;-1.60;99.90;;;;;;4909627;29;20555;-76
2023/03/02 07:36:59;;;;;;;14.10;7.22;;;-1.60;99.90;;;;;;4911218;28;20475;-76
2023/03/02 07:39:24;;;;;;;13.27;7.00;;;-1.60;99.90;;;;;;4929568;29;20031;-76
2023/03/02 07:41:50;;;;;;;10.63;6.43;;;-1.70;99.90;;;;;;4922327;28;20344;-76
2023/03/02 07:44:15;;;;;;;13.60;7.28;;;-1.40;99.90;;;;;;4900675;28;20731;-77
2023/03/02 07:46:41;;;;;;;14.73;7.60;;;-1.30;99.90;;;;;;4944128;28;20049;-76
2023/03/02 07:49:07;;;;;;;15.88;6.88;;;-1.40;99.90;;;;;;4903735;28;20086;-76
2023/03/02 07:51:32;;;;;;;11.35;6.45;;;-1.30;99.90;;;;;;4914123;28;20043;-77
2023/03/02 07:53:58;;;;;;;12.98;7.03;;;-1.40;99.90;;;;;;4916714;28;20036;-77
2023/03/02 07:56:23;;;;;;;12.23;6.55;;;-1.20;99.90;;;;;;4916614;29;20035;-77
2023/03/02 07:58:49;;;;;;;11.05;7.15;;;-1.30;99.90;;;;;;4913800;28;20035;-76
2023/03/02 08:01:15;;;;;;;11.82;7.28;;;-1.10;99.90;;;;;;4920469;28;20118;-76
2023/03/02 08:03:40;;;;;;;10.68;7.57;;;-1.10;99.90;;;;;;4896166;28;20422;-76
2023/03/02 08:06:08;;;;;;;13.50;7.00;;;-1.00;99.90;;;;;;4904464;28;20031;-77
2023/03/02 08:08:34;;;;;;;10.70;6.53;;;-0.90;99.90;;;;;;4912803;28;20039;-77
2023/03/02 08:11:07;;;;;;;12.18;6.40;;;-0.50;99.90;;;;;;4914527;28;20059;-77
2023/03/02 08:13:32;;;;;;;14.27;6.13;;;-0.60;99.90;;;;;;4911276;28;20050;-77
2023/03/02 08:16:02;;;;;;;12.57;6.85;;;-0.70;99.90;;;;;;4919631;28;20035;-77
2023/03/02 08:18:28;;;;;;;11.05;6.05;;;-0.60;99.90;;;;;;4910650;29;20040;-77
2023/03/02 08:20:58;;;;;;;12.02;7.25;;;-0.40;99.90;;;;;;4893072;28;20077;-77
2023/03/02 08:23:24;;;;;;;12.43;6.78;;;-0.40;99.90;;;;;;4935199;28;20043;-77
2023/03/02 08:25:51;;;;;;;12.52;6.60;;;-0.10;99.90;;;;;;4942249;28;20046;-76
2023/03/02 08:28:17;;;;;;;11.57;7.20;;;-0.30;99.90;;;;;;4902943;28;20045;-76
2023/03/02 08:30:42;;;;;;;10.10;6.25;;;-0.20;99.90;;;;;;4910062;28;20040;-76
2023/03/02 08:33:08;;;;;;;10.45;6.72;;;-0.20;99.90;;;;;;4916420;28;20482;-76
2023/03/02 08:35:33;;;;;;;15.07;6.45;;;0.00;99.90;;;;;;4928032;28;20090;-76
2023/03/02 08:37:59;;;;;;;12.68;5.55;;;0.30;99.90;;;;;;4917035;28;20043;-76
2023/03/02 08:40:25;;;;;;;10.60;5.78;;;0.20;99.90;;;;;;4916935;28;20046;-76
2023/03/02 08:42:55;;;;;;;10.60;6.28;;;0.30;99.90;;;;;;4899965;28;20040;-78
2023/03/02 08:45:22;;;;;;;11.40;7.07;;;1.00;99.90;;;;;;4921638;28;20055;-76
2023/03/02 08:47:48;;;;;;;11.73;6.25;;;1.00;99.90;;;;;;4895531;28;20553;-76
2023/03/02 08:50:14;;;;;;;10.63;6.90;;;0.90;99.90;;;;;;4914062;28;20129;-78
2023/03/02 08:52:39;;;;;;;12.75;6.80;;;0.90;99.90;;;;;;4928220;28;20049;-78
2023/03/02 08:55:06;;;;;;;11.45;6.90;;;1.00;99.90;;;;;;4916764;28;20073;-78
2023/03/02 08:57:33;;;;;;;12.07;6.93;;;1.10;99.90;;;;;;4921766;28;20039;-78
2023/03/02 08:59:59;;;;;;;13.70;6.18;;;1.20;99.90;;;;;;4925734;28;20041;-77
2023/03/02 09:02:24;;;;;;;13.30;6.53;;;1.20;99.90;;;;;;4937927;28;20509;-78
2023/03/02 09:04:50;;;;;;;11.50;7.78;;;1.60;99.90;;;;;;4923864;28;20103;-78
2023/03/02 09:07:16;;;;;;;12.02;6.90;;;1.40;99.90;;;;;;4918640;28;20487;-78
2023/03/02 09:09:42;;;;;;;12.23;7.43;;;1.30;99.90;;;;;;4932354;28;20154;-76
2023/03/02 09:12:07;;;;;;;11.77;6.63;;;1.40;99.90;;;;;;4932470;28;20038;-76
2023/03/02 09:14:33;;;;;;;10.93;6.38;;;1.70;99.90;;;;;;4899102;28;20042;-76
2023/03/02 09:16:59;;;;;;;12.85;7.53;;;1.50;99.90;;;;;;4911795;28;20027;-76
2023/03/02 09:19:24;;;;;;;12.10;6.53;;;1.90;99.90;;;;;;4932157;28;20040;-76
2023/03/02 09:21:50;;;;;;;12.57;6.38;;;1.70;99.90;;;;;;4946695;28;20161;-76
2023/03/02 09:24:16;;;;;;;14.02;6.68;;;1.90;99.90;;;;;;4897184;28;20044;-77
2023/03/02 09:26:41;;;;;;;15.07;7.63;;;1.70;99.90;;;;;;4910115;28;20035;-76
2023/03/02 09:29:07;;;;;;;11.27;6.85;;;1.80;99.90;;;;;;4919480;28;20110;-76
2023/03/02 09:31:33;;;;;;;11.93;5.78;;;2.00;99.90;;;;;;4920095;28;20036;-75
2023/03/02 09:33:59;;;;;;;13.32;6.32;;;2.50;99.90;;;;;;4912918;28;20055;-77
2023/03/02 09:36:25;;;;;;;14.32;7.22;;;3.00;99.90;;;;;;4913268;28;20061;-76
2023/03/02 09:38:50;;;;;;;14.18;6.65;;;3.20;99.90;;;;;;4933845;28;20058;-77
2023/03/02 09:41:25;;;;;;;13.02;6.90;;;3.10;99.90;;;;;;4920505;28;20541;-76
2023/03/02 09:43:56;;;;;;;11.90;6.53;;;2.70;99.90;;;;;;4930024;28;20054;-76
2023/03/02 09:46:22;;;;;;;15.63;7.88;;;2.70;99.90;;;;;;4924246;28;20039;-76
2023/03/02 09:49:06;;;;;;;12.02;6.15;;;2.80;99.90;;;;;;4925413;28;20032;-76
2023/03/02 09:51:53;;;;;;;16.48;6.60;;;3.10;99.90;;;;;;4925169;28;20043;-77
2023/03/02 09:54:25;;;;;;;11.43;6.53;;;2.90;99.90;;;;;;4924312;28;20666;-77
2023/03/02 09:56:56;;;;;;;13.55;6.60;;;3.10;99.90;;;;;;4898024;28;20491;-77
2023/03/02 09:59:53;;;;;;;12.35;7.20;;;3.70;99.90;;;;;;4911898;28;20046;-77
2023/03/02 10:02:27;;;;;;;12.02;6.20;;;3.60;99.90;;;;;;4900484;28;20028;-76
2023/03/02 10:04:54;;;;;;;11.13;5.88;;;4.30;99.90;;;;;;4894436;28;20040;-76
2023/03/02 10:07:27;;;;;;;11.35;6.35;;;4.60;99.90;;;;;;4922018;28;20505;-76
2023/03/02 10:09:54;;;;;;;9.00;5.72;;;4.90;99.90;;;;;;4914972;28;20371;-76
2023/03/02 10:12:47;;;;;;;11.18;6.50;;;4.90;99.90;;;;;;4897620;28;20077;-76
2023/03/02 10:15:30;;;;;;;12.98;7.18;;;4.80;99.90;;;;;;4927937;28;20027;-76
2023/03/02 10:18:27;;;;;;;15.20;6.50;;;4.20;99.90;;;;;;4913062;28;20036;-76
2023/03/02 10:20:55;;;;;;;17.13;6.93;;;4.20;99.90;;;;;;4908142;28;20043;-77
2023/03/02 10:23:45;;;;;;;13.13;6.57;;;4.40;99.90;;;;;;4929213;28;20078;-77
2023/03/02 10:26:39;;;;;;;14.30;6.40;;;4.30;99.90;;;;;;4939611;28;20130;-77
2023/03/02 10:29:38;;;;;;;10.30;6.72;;;4.40;99.90;;;;;;4922815;29;20500;-77
2023/03/02 10:32:16;;;;;;;14.85;8.48;;;4.90;99.90;;;;;;4921413;28;20134;-77
2023/03/02 10:34:42;;;;;;;9.30;6.38;;;4.90;99.90;;;;;;4935654;28;20039;-77
2023/03/02 10:37:20;;;;;;;11.23;5.03;;;5.20;99.90;;;;;;4910680;28;20031;-78
2023/03/02 10:39:45;;;;;;;10.48;6.07;;;5.40;99.90;;;;;;4897274;29;20674;-78
2023/03/02 10:42:21;;;;;;;11.30;6.88;;;5.50;99.90;;;;;;4900099;28;20151;-77
2023/03/02 10:44:51;;;;;;;14.90;7.45;;;5.10;99.90;;;;;;4894902;28;20106;-77
2023/03/02 10:47:24;;;;;;;12.23;6.38;;;4.60;99.90;;;;;;4909914;28;20078;-76
2023/03/02 10:49:51;;;;;;;10.93;6.47;;;4.60;99.90;;;;;;4910270;28;20344;-78
2023/03/02 10:52:23;;;;;;;11.32;6.20;;;4.40;99.90;;;;;;4913128;28;20050;-78
2023/03/02 10:54:48;;;;;;;11.65;6.53;;;4.50;99.90;;;;;;4899257;29;20031;-79
2023/03/02 10:57:30;;;;;;;11.77;6.43;;;4.60;99.90;;;;;;4906818;28;20578;-79
2023/03/02 11:00:25;;;;;;;10.20;5.85;;;5.10;99.90;;;;;;4913727;28;20193;-78
2023/03/02 11:02:52;;;;;;;10.45;6.20;;;5.20;99.90;;;;;;4903610;28;20036;-78
2023/03/02 11:05:22;;;;;;;10.20;5.80;;;5.00;99.90;;;;;;4950035;28;20031;-78
2023/03/02 11:07:55;;;;;;;10.70;5.50;;;5.60;99.90;;;;;;4956171;28;20047;-78
2023/03/02 11:10:22;;;;;;;15.32;6.60;;;5.10;99.90;;;;;;4945196;28;20444;-79
2023/03/02 11:12:49;;;;;;;10.95;6.03;;;5.30;99.90;;;;;;4912043;29;20040;-79
2023/03/02 11:15:33;;;;;;;10.68;5.55;;;5.60;99.90;;;;;;4929429;28;20150;-79
2023/03/02 11:18:23;;;;;;;13.82;6.97;;;5.60;99.90;;;;;;4943801;28;20043;-78
2023/03/02 11:21:10;;;;;;;10.73;5.70;;;6.30;99.90;;;;;;4913559;28;20036;-79
2023/03/02 11:24:14;;;;;;;9.27;5.43;;;6.40;99.90;;;;;;4933513;28;20050;-78
2023/03/02 11:26:42;;;;;;;11.98;6.13;;;6.50;99.90;;;;;;4935349;28;20042;-79
2023/03/02 11:29:36;;;;;;;9.60;5.40;;;6.60;99.90;;;;;;4948291;28;20068;-79
2023/03/02 11:32:12;;;;;;;9.50;5.68;;;7.50;99.90;;;;;;4936888;28;21536;-79
2023/03/02 11:34:50;;;;;;;12.10;6.10;;;6.60;99.90;;;;;;4903527;29;20637;-78
2023/03/02 11:37:24;;;;;;;9.73;6.03;;;7.50;99.90;;;;;;4929463;28;20046;-79
2023/03/02 11:39:58;;;;;;;10.38;6.13;;;7.30;99.90;;;;;;4915808;28;20040;-78
2023/03/02 11:42:42;;;;;;;10.00;5.38;;;7.20;99.90;;;;;;4918076;28;20118;-78
2023/03/02 11:45:11;;;;;;;15.80;5.82;;;6.60;99.90;;;;;;4918074;28;20027;-79
2023/03/02 11:47:37;;;;;;;11.50;5.95;;;6.70;99.90;;;;;;4944569;28;20043;-78
2023/03/02 11:50:06;;;;;;;9.30;5.15;;;6.50;99.90;;;;;;4898147;28;20478;-78
2023/03/02 11:52:35;;;;;;;8.57;4.80;;;6.50;99.90;;;;;;4903281;28;20391;-78
2023/03/02 11:55:25;;;;;;;10.52;5.13;;;6.40;99.90;;;;;;4900766;28;20054;-79
2023/03/02 11:57:53;;;;;;;9.23;4.97;;;7.00;99.90;;;;;;4935756;28;20126;-78
2023/03/02 12:00:29;;;;;;;7.55;5.15;;;6.90;99.90;;;;;;4914231;28;20030;-76
2023/03/02 12:03:05;;;;;;;12.90;4.85;;;6.90;99.90;;;;;;4926872;28;20049;-77
2023/03/02 12:05:34;;;;;;;;;;;7.90;99.90;;;;;;4933188;28;20535;-78
2023/03/02 12:08:26;;;;;;;11.13;5.07;;;8.50;99.40;;;;;;4926104;28;19914;-79
2023/03/02 12:11:17;;;;;;;12.35;5.25;;;8.10;99.90;;;;;;4922039;28;20399;-78
2023/03/02 12:14:00;;;;;;;8.20;5.07;;;7.10;99.90;;;;;;4929749;28;20036;-78
2023/03/02 12:16:39;;;;;;;10.73;4.68;;;6.80;99.90;;;;;;4910295;28;20086;-78
2023/03/02 12:19:11;;;;;;;9.45;5.50;;;7.30;99.20;;;;;;4940848;28;20027;-78
2023/03/02 12:21:55;;;;;;;7.50;5.28;;;7.10;99.90;;;;;;4897756;28;20036;-79
2023/03/02 12:24:25;;;;;;;8.18;4.45;;;7.40;99.90;;;;;;4935851;28;20035;-79
2023/03/02 12:27:04;;;;;;;6.43;3.80;;;7.90;99.90;;;;;;4908704;28;20038;-78
2023/03/02 12:29:47;;;;;;;6.03;4.03;;;9.00;98.40;;;;;;4928963;28;20038;-78
2023/03/02 12:32:25;;;;;;;10.00;4.25;;;9.30;99.00;;;;;;4899857;28;20463;-79
2023/03/02 12:34:55;;;;;;;8.15;5.10;;;8.60;99.00;;;;;;4909625;28;20039;-77
2023/03/02 12:37:36;;;;;;;8.57;5.78;;;7.80;96.10;;;;;;4918725;28;20082;-79
2023/03/02 12:40:13;;;;;;;7.70;4.05;;;8.80;97.60;;;;;;4901456;28;20055;-77
2023/03/02 12:42:39;;;;;;;11.05;4.82;;;8.40;96.50;;;;;;4949714;28;20042;-79
2023/03/02 12:45:26;;;;;;;5.60;3.97;;;8.10;99.20;;;;;;4948608;28;20027;-77
2023/03/02 12:48:01;;;;;;;7.78;4.43;;;8.30;99.90;;;;;;4913183;28;20039;-78
2023/03/02 12:50:29;;;;;;;6.18;3.70;;;7.90;99.40;;;;;;4906285;28;20060;-79